Monteview, ID

8:06 AM MDT on July 23, 2014 (GMT -0600)
Fanning (KIDA) Elev 4741 ft | 43.51 °N, 112.07 °W | Change Station
Active Advisory: Fire Weather Watch

Current weather conditions updated 13 minutes ago

Scattered Clouds
Scattered Clouds
69 °F
Feels Like 69 °F
N
15
Wind Variable Wind from South

Today is forecast to be nearly the same temperature as yesterday.

Today
High -- | Low -- °F
--% Chance of Precip.
Yesterday
High -- | Low -- °F
Precip. -- in
6:09 AM 9:03 PM
Waning Crescent, 10% visible
Pressure 30.02 in
Visibility 10.0 miles
Clouds Scattered Clouds 15000 ft
Scattered Clouds 20000 ft
Dew Point 47 °F
Humidity 45%
Rainfall 0.00 in
Snow Depth Not available.
UV 1 out of 12
Pollen 5.90 out of 12
PM2.5 Good
Flu Activity Not available.
METAR KIDA 231353Z 19013KT 10SM SCT150 SCT200 21/08 A3018 RMK AO2 SLP166 HZ ALQDS T02060083

More Conditions Fewer Conditions

Pressure 30.02 in
Visibility 10.0 miles
Clouds Scattered Clouds 15000 ft
Scattered Clouds 20000 ft
Dew Point 47 °F
Humidity 45%
Rainfall 0.00 in
Snow Depth Not available.
UV 1 out of 12
Pollen 5.90 out of 12
PM2.5 Good
Flu Activity Not available.
METAR KIDA 231353Z 19013KT 10SM SCT150 SCT200 21/08 A3018 RMK AO2 SLP166 HZ ALQDS T02060083

More Conditions Fewer Conditions

10-Day Weather Forecast

Almanac

Astronomy

Jul. 23, 2014 Rise Set
Actual Time 6:09 AM MDT 9:03 PM MDT
Civil Twilight 5:35 AM MDT 9:37 PM MDT
Nautical Twilight 4:52 AM MDT 10:20 PM MDT
Astronomical Twilight 4:01 AM MDT 11:10 PM MDT
Moon 3:32 AM MDT 6:34 PM MDT
Length of Visible Light 16h 01m
Length of Day
14h 54m
Tomorrow will be 1m 58s shorter.
Waning Crescent, 10% of the Moon is Illuminated
Today
Waning Crescent
Jul 26
New
Aug 3
First Quarter
Aug 10
Full
Aug 17
Last Quarter

Today's Extremes

State Highs State Lows

Community

WunderPhotos

Upload Photos

1,736,602 photos uploaded!

Nearby

Air Quality

  Air Quality AQ Index Pollutant
Yesterday Good
PM2.5
Current Good
PM2.5
Wednesday Good
PM2.5
Thursday Good
PM2.5

Snow Depth

Station Depth Elevation
Hilts Creek 0 in 8000 ft
Moonshine 1 in 7440 ft
Island Park 0 in 6290 ft
Bear Canyon 0 in 7900 ft
White Elephant 0 in 7710 ft

Earthquake Activity

City Distance Mag. Time & Date
Driggs, Idaho 72 miles 3.1 5:31 PM MDT
2014-07-17
Minimum magnitude displayed is 2.5.

Coastal Water Temperatures

Place Temperature
No Stations Reporting

Nearby Weather Stations

There are no personal weather stations in this area.